createdAt,value
2022-09-02T00:01:09.963Z,4.00
2022-09-02T00:05:57.051Z,3.35
2022-09-02T00:10:38.060Z,4.00
2022-09-02T00:15:16.227Z,3.40
2022-09-02T00:19:56.138Z,3.20
2022-09-02T00:24:36.484Z,3.50
2022-09-02T00:29:24.853Z,3.60
2022-09-02T00:34:03.755Z,3.47
2022-09-02T00:38:44.266Z,3.40
2022-09-02T00:43:28.580Z,3.53
2022-09-02T00:48:16.188Z,3.63
2022-09-02T00:52:59.983Z,3.70
2022-09-02T00:57:47.845Z,4.10
2022-09-02T01:07:12.607Z,3.70
2022-09-02T01:11:51.925Z,4.15
2022-09-02T01:16:31.153Z,4.30
2022-09-02T01:21:05.577Z,4.17
2022-09-02T01:25:43.061Z,4.25
2022-09-02T01:30:20.620Z,4.10
2022-09-02T01:34:54.655Z,3.90
2022-09-02T01:39:29.608Z,4.15
2022-09-02T01:44:07.849Z,4.13
2022-09-02T01:48:42.811Z,4.40
2022-09-02T01:53:18.324Z,4.17
2022-09-02T01:57:53.070Z,4.53
2022-09-02T02:02:30.099Z,4.50
2022-09-02T02:07:09.482Z,4.60
2022-09-02T02:11:45.321Z,5.10
2022-09-02T02:16:22.301Z,4.90
2022-09-02T02:20:57.768Z,4.90
2022-09-02T02:25:31.801Z,5.03
2022-09-02T02:30:07.513Z,5.25
2022-09-02T02:34:42.739Z,5.47
2022-09-02T02:39:18.456Z,5.03
2022-09-02T02:43:53.428Z,4.97
2022-09-02T02:48:27.462Z,5.25
2022-09-02T02:53:03.310Z,5.70
2022-09-02T02:57:40.255Z,5.32
2022-09-02T03:02:14.856Z,5.30
2022-09-02T03:06:49.686Z,5.67
2022-09-02T03:11:25.096Z,5.75
2022-09-02T03:16:01.097Z,5.70
2022-09-02T03:20:35.536Z,4.97
2022-09-02T03:25:14.101Z,5.57
2022-09-02T03:29:48.262Z,5.22
2022-09-02T03:34:23.882Z,5.30
2022-09-02T03:38:58.697Z,4.93
2022-09-02T03:43:34.574Z,4.80
2022-09-02T03:48:09.092Z,5.00
2022-09-02T03:52:46.157Z,4.93
2022-09-02T03:57:23.093Z,5.50
2022-09-02T04:01:57.783Z,5.80
2022-09-02T04:06:32.936Z,5.75
2022-09-02T04:11:11.557Z,6.37
2022-09-02T04:15:49.065Z,6.38
2022-09-02T04:20:24.725Z,6.32
2022-09-02T04:24:58.843Z,6.03
2022-09-02T04:29:35.661Z,6.65
2022-09-02T04:34:10.539Z,6.53
2022-09-02T04:38:47.646Z,6.87
2022-09-02T04:43:23.241Z,6.20
2022-09-02T04:47:59.690Z,5.75
2022-09-02T04:52:34.230Z,5.38
2022-09-02T04:57:08.459Z,5.60
2022-09-02T05:01:43.238Z,5.70
2022-09-02T05:06:27.683Z,5.50
2022-09-02T05:11:07.035Z,5.80
2022-09-02T05:15:44.985Z,5.07
2022-09-02T05:20:20.274Z,5.10
2022-09-02T05:24:55.872Z,5.03
2022-09-02T05:29:30.776Z,4.85
2022-09-02T05:34:05.245Z,4.72
2022-09-02T05:38:39.811Z,4.53
2022-09-02T05:43:16.297Z,4.50
2022-09-02T05:47:50.888Z,4.30
2022-09-02T05:52:25.188Z,4.25
2022-09-02T05:57:03.088Z,4.23
2022-09-02T06:01:38.714Z,4.72
2022-09-02T06:06:13.366Z,3.72
2022-09-02T06:10:48.827Z,4.00
2022-09-02T06:15:27.670Z,3.83
2022-09-02T06:20:05.671Z,4.00
2022-09-02T06:24:41.149Z,4.00
2022-09-02T06:29:21.144Z,4.03
2022-09-02T06:33:57.644Z,3.80
2022-09-02T06:38:40.564Z,3.78
2022-09-02T06:43:17.948Z,3.80
2022-09-02T06:48:15.078Z,3.40
2022-09-02T06:52:49.917Z,3.10
2022-09-02T06:57:26.763Z,2.83
2022-09-02T07:02:09.334Z,2.50
2022-09-02T07:06:48.811Z,2.38
2022-09-02T07:11:25.616Z,2.40
2022-09-02T07:16:03.384Z,2.10
2022-09-02T07:20:38.171Z,1.95
2022-09-02T07:25:13.776Z,1.98
2022-09-02T07:29:48.966Z,1.70
2022-09-02T07:34:26.036Z,1.88
2022-09-02T07:39:00.137Z,1.70
2022-09-02T07:43:35.045Z,1.60
2022-09-02T07:48:10.687Z,1.50
2022-09-02T07:52:47.040Z,2.20
2022-09-02T07:57:21.370Z,1.67
2022-09-02T08:01:55.942Z,1.70
2022-09-02T08:06:34.911Z,1.73
2022-09-02T08:11:12.277Z,1.65
2022-09-02T08:15:50.854Z,1.67
2022-09-02T08:20:25.109Z,1.40
2022-09-02T08:24:59.626Z,1.63
2022-09-02T08:29:35.463Z,1.77
2022-09-02T08:34:09.877Z,1.58
2022-09-02T08:38:44.528Z,1.70
2022-09-02T08:43:30.367Z,1.77
2022-09-02T08:48:12.761Z,1.67
2022-09-02T08:52:59.292Z,1.70
2022-09-02T08:57:33.643Z,1.60
2022-09-02T09:02:20.358Z,1.50
2022-09-02T09:07:09.360Z,1.67
2022-09-02T09:11:52.451Z,1.73
2022-09-02T09:16:40.949Z,1.80
2022-09-02T09:21:15.527Z,1.80
2022-09-02T09:25:56.015Z,1.33
2022-09-02T09:30:30.513Z,1.30
2022-09-02T09:35:07.846Z,1.20
2022-09-02T09:39:41.997Z,1.30
2022-09-02T09:44:38.042Z,1.20
2022-09-02T09:49:12.147Z,1.10
2022-09-02T09:53:46.959Z,1.20
2022-09-02T09:58:22.775Z,1.10
2022-09-02T10:03:01.005Z,1.40
2022-09-02T10:07:40.241Z,1.33
2022-09-02T10:12:14.792Z,1.60
2022-09-02T10:16:59.761Z,1.25
2022-09-02T10:21:50.966Z,1.10
2022-09-02T10:26:39.116Z,1.27
2022-09-02T10:31:21.435Z,1.25
2022-09-02T10:36:01.762Z,1.23
2022-09-02T10:40:44.573Z,0.93
2022-09-02T10:45:25.754Z,1.40
2022-09-02T10:50:07.516Z,1.50
2022-09-02T10:54:50.340Z,1.08
2022-09-02T10:59:31.784Z,1.20
2022-09-02T11:04:11.207Z,1.17
2022-09-02T11:08:51.295Z,1.30
2022-09-02T11:13:32.728Z,1.20
2022-09-02T11:22:59.321Z,1.30
2022-09-02T11:27:42.654Z,1.00
2022-09-02T11:32:23.039Z,1.00
2022-09-02T11:36:59.724Z,1.00
2022-09-02T11:41:48.890Z,1.10
2022-09-02T11:46:57.043Z,1.00
2022-09-02T11:51:55.143Z,1.25
2022-09-02T11:56:37.236Z,1.10
2022-09-02T12:01:27.911Z,0.90
2022-09-02T12:06:11.606Z,1.00
2022-09-02T12:11:00.075Z,1.10
2022-09-02T12:15:36.396Z,1.00
2022-09-02T12:20:12.485Z,1.10
2022-09-02T12:24:52.480Z,1.20
2022-09-02T12:29:35.300Z,1.00
2022-09-02T12:34:42.433Z,1.23
2022-09-02T12:39:52.937Z,1.13
2022-09-02T12:44:31.978Z,1.30
2022-09-02T12:49:15.439Z,1.00
2022-09-02T12:53:52.076Z,1.00
2022-09-02T12:58:32.281Z,1.30
2022-09-02T13:03:27.507Z,1.10
2022-09-02T13:08:34.262Z,1.30
2022-09-02T13:13:31.942Z,1.20
2022-09-02T13:18:35.284Z,1.00
2022-09-02T13:23:31.960Z,0.90
2022-09-02T13:28:37.514Z,1.25
2022-09-02T13:33:13.427Z,1.10
2022-09-02T13:37:55.896Z,1.23
2022-09-02T13:42:32.750Z,1.20
2022-09-02T13:47:17.327Z,1.00
2022-09-02T13:51:54.760Z,1.10
2022-09-02T13:56:31.717Z,0.93
2022-09-02T14:01:20.925Z,1.20
2022-09-02T14:06:00.048Z,1.20
2022-09-02T14:10:39.048Z,1.10
2022-09-02T14:15:16.331Z,1.30
2022-09-02T14:19:51.492Z,1.17
2022-09-02T14:24:38.731Z,1.27
2022-09-02T14:29:17.172Z,1.20
2022-09-02T14:33:51.851Z,1.30
2022-09-02T14:38:27.807Z,23.05
2022-09-02T14:43:02.711Z,2.83
2022-09-02T14:47:40.202Z,3.20
2022-09-02T14:52:20.094Z,3.13
2022-09-02T14:56:55.335Z,1.10
2022-09-02T15:01:29.361Z,1.10
2022-09-02T15:06:04.867Z,1.20
2022-09-02T15:10:40.321Z,1.25
2022-09-02T15:15:14.395Z,1.75
2022-09-02T15:19:48.861Z,1.33
2022-09-02T15:24:24.326Z,1.20
2022-09-02T15:28:58.522Z,1.35
2022-09-02T15:33:33.252Z,1.30
2022-09-02T15:38:08.797Z,1.35
2022-09-02T15:42:44.219Z,1.50
2022-09-02T15:47:18.277Z,1.45
2022-09-02T15:51:54.911Z,1.20
2022-09-02T15:56:30.747Z,1.13
2022-09-02T16:01:07.437Z,1.70
2022-09-02T16:05:43.218Z,1.60
2022-09-02T16:10:17.331Z,1.40
2022-09-02T16:14:51.392Z,1.30
2022-09-02T16:19:30.275Z,1.50
2022-09-02T16:24:04.901Z,1.35
2022-09-02T16:28:46.287Z,1.48
2022-09-02T16:33:20.736Z,1.15
2022-09-02T16:37:58.341Z,1.00
2022-09-02T16:42:37.402Z,1.10
2022-09-02T16:47:13.863Z,1.30
2022-09-02T16:51:49.590Z,1.27
2022-09-02T16:56:26.082Z,1.15
2022-09-02T17:01:00.162Z,1.20
2022-09-02T17:05:34.211Z,1.30
2022-09-02T17:10:08.552Z,1.50
2022-09-02T17:14:44.085Z,1.33
2022-09-02T17:19:22.491Z,1.30
2022-09-02T17:23:57.247Z,1.30
2022-09-02T17:28:31.307Z,1.30
2022-09-02T17:33:06.810Z,1.40
2022-09-02T17:37:41.224Z,1.33
2022-09-02T17:42:15.398Z,1.23
2022-09-02T17:46:49.462Z,1.40
2022-09-02T17:51:25.518Z,1.50
2022-09-02T17:56:06.356Z,1.90
2022-09-02T18:00:42.396Z,1.33
2022-09-02T18:05:28.870Z,1.50
2022-09-02T18:10:05.372Z,1.50
2022-09-02T18:14:45.836Z,1.50
2022-09-02T18:19:36.504Z,1.42
2022-09-02T18:24:19.197Z,1.70
2022-09-02T18:29:06.023Z,1.30
2022-09-02T18:33:58.753Z,1.40
2022-09-02T18:38:43.249Z,1.20
2022-09-02T18:43:26.154Z,1.40
2022-09-02T18:48:07.037Z,1.55
2022-09-02T18:52:43.805Z,1.20
2022-09-02T18:57:18.737Z,1.43
2022-09-02T19:01:56.391Z,1.50
2022-09-02T19:06:35.978Z,1.50
2022-09-02T19:11:12.930Z,1.70
2022-09-02T19:15:47.356Z,1.40
2022-09-02T19:20:22.132Z,1.63
2022-09-02T19:25:02.976Z,1.50
2022-09-02T19:29:41.270Z,1.83
2022-09-02T19:34:16.999Z,1.70
2022-09-02T19:38:51.178Z,1.60
2022-09-02T19:43:27.061Z,1.57
2022-09-02T19:48:09.183Z,1.70
2022-09-02T19:52:45.345Z,1.45
2022-09-02T19:57:19.430Z,1.80
2022-09-02T20:01:54.853Z,1.90
2022-09-02T20:06:28.936Z,1.70
2022-09-02T20:11:04.859Z,1.73
2022-09-02T20:15:39.830Z,1.63
2022-09-02T20:20:19.216Z,1.50
2022-09-02T20:24:53.357Z,1.60
2022-09-02T20:29:37.837Z,1.70
2022-09-02T20:34:29.898Z,1.60
2022-09-02T20:39:25.102Z,1.50
2022-09-02T20:44:20.760Z,1.67
2022-09-02T20:49:12.626Z,1.40
2022-09-02T20:54:14.542Z,1.50
2022-09-02T20:58:57.646Z,1.60
2022-09-02T21:03:41.403Z,1.90
2022-09-02T21:08:24.586Z,1.85
2022-09-02T21:13:06.145Z,1.80
2022-09-02T21:17:48.794Z,1.67
2022-09-02T21:22:28.054Z,1.95
2022-09-02T21:27:08.991Z,2.08
2022-09-02T21:31:49.517Z,2.03
2022-09-02T21:36:30.348Z,1.80
2022-09-02T21:41:22.569Z,1.90
2022-09-02T21:46:05.709Z,1.90
2022-09-02T21:50:49.171Z,1.67
2022-09-02T21:55:49.773Z,1.88
2022-09-02T22:00:26.526Z,1.60
2022-09-02T22:05:10.314Z,1.60
2022-09-02T22:09:44.840Z,1.70
2022-09-02T22:14:28.481Z,1.63
2022-09-02T22:19:08.588Z,1.90
2022-09-02T22:23:45.052Z,1.92
2022-09-02T22:28:25.900Z,1.70
2022-09-02T22:33:08.059Z,1.80
2022-09-02T22:37:48.299Z,1.80
2022-09-02T22:42:31.921Z,1.80
2022-09-02T22:47:28.065Z,1.63
2022-09-02T22:52:27.141Z,1.57
2022-09-02T22:57:07.124Z,1.73
2022-09-02T23:01:53.758Z,1.50
2022-09-02T23:06:30.093Z,1.80
2022-09-02T23:11:11.705Z,1.58
2022-09-02T23:15:58.595Z,2.05
2022-09-02T23:20:44.627Z,2.00
2022-09-02T23:25:33.555Z,1.90
2022-09-02T23:30:09.525Z,1.80
2022-09-02T23:35:12.565Z,1.52
2022-09-02T23:39:56.502Z,2.00
2022-09-02T23:44:31.158Z,2.00
2022-09-02T23:49:14.992Z,1.80
2022-09-02T23:54:05.566Z,1.97
2022-09-02T23:59:02.364Z,1.90
